Time;durP1;ratioP1;P1;durP2;ratioP2;P2;SDS_P1;SDS_P2;PMS_P1;PMS_P2;Temp;Humidity;BMP_temperature;BMP_pressure;BME280_temperature;BME280_humidity;BME280_pressure;Samples;Min_cycle;Max_cycle;Signal;HPM_P1;HPM_P2
2022/12/12 00:00:17;;;;;;;;;;;2.30;99.90;;;;;;5100990;28;19931;-66
2022/12/12 00:02:43;;;;;;;;;;;2.20;99.90;;;;;;5108104;28;19912;-66
2022/12/12 00:05:12;;;;;;;;;;;2.30;99.90;;;;;;5084476;28;20371;-66
2022/12/12 00:07:38;;;;;;;;;;;2.30;99.90;;;;;;5104429;28;19912;-66
2022/12/12 00:10:03;;;;;;;;;;;2.40;99.90;;;;;;5102261;28;19926;-66
2022/12/12 00:12:29;;;;;;;;;;;2.30;99.90;;;;;;5102327;28;20006;-66
2022/12/12 00:14:54;;;;;;;;;;;2.40;99.90;;;;;;5103543;28;20283;-67
2022/12/12 00:17:20;;;;;;;;;;;2.40;99.90;;;;;;5106068;28;20011;-67
2022/12/12 00:19:45;;;;;;;;;;;2.40;99.90;;;;;;5105424;28;19911;-67
2022/12/12 00:22:11;;;;;;;;;;;2.30;99.90;;;;;;5105003;27;19927;-67
2022/12/12 00:24:36;;;;;;;;;;;2.30;99.90;;;;;;5105323;28;19936;-67
2022/12/12 00:27:02;;;;;;;;;;;2.30;99.90;;;;;;5109318;27;19924;-66
2022/12/12 00:29:28;;;;;;;;;;;2.30;99.90;;;;;;5102891;27;20359;-67
2022/12/12 00:31:53;;;;;;;;;;;2.20;99.90;;;;;;5102708;27;19923;-67
2022/12/12 00:34:19;;;;;;;;;;;2.30;99.90;;;;;;5107902;27;20010;-67
2022/12/12 00:36:44;;;;;;;;;;;2.30;99.90;;;;;;5106974;28;20454;-67
2022/12/12 00:39:09;;;;;;;;;;;2.30;99.90;;;;;;5087093;28;19916;-67
2022/12/12 00:41:36;;;;;;;;;;;2.40;99.90;;;;;;5105751;28;19923;-67
2022/12/12 00:44:01;;;;;;;;;;;2.30;99.90;;;;;;5105351;28;20367;-67
2022/12/12 00:46:27;;;;;;;;;;;2.30;99.90;;;;;;5105501;28;19927;-67
2022/12/12 00:48:53;;;;;;;;;;;2.30;99.90;;;;;;5105027;28;19930;-67
2022/12/12 00:51:20;;;;;;;;;;;2.40;99.90;;;;;;5088007;28;20014;-67
2022/12/12 00:53:45;;;;;;;;;;;2.30;99.90;;;;;;5086072;28;19916;-67
2022/12/12 00:56:13;;;;;;;;;;;2.30;99.90;;;;;;5100992;28;19931;-67
2022/12/12 00:58:39;;;;;;;;;;;2.30;99.90;;;;;;5106100;28;19991;-67
2022/12/12 01:01:11;;;;;;;;;;;2.30;99.90;;;;;;5102593;27;20042;-67
2022/12/12 01:03:38;;;;;;;;;;;2.30;99.90;;;;;;5105253;28;20386;-66
2022/12/12 01:06:04;;;;;;;;;;;2.20;99.90;;;;;;5100676;28;19912;-67
2022/12/12 01:08:29;;;;;;;;;;;2.10;99.90;;;;;;5106159;28;19923;-68
2022/12/12 01:10:54;;;;;;;;;;;2.10;99.90;;;;;;5104896;28;19920;-68
2022/12/12 01:13:20;;;;;;;;;;;2.10;99.90;;;;;;5103578;28;19912;-67
2022/12/12 01:15:46;;;;;;;;;;;2.20;99.90;;;;;;5106664;28;19911;-67
2022/12/12 01:18:11;;;;;;;;;;;2.20;99.90;;;;;;5106739;28;20409;-67
2022/12/12 01:20:37;;;;;;;;;;;2.20;99.90;;;;;;5108454;27;19915;-66
2022/12/12 01:23:02;;;;;;;;;;;2.20;99.90;;;;;;5105342;27;19918;-66
2022/12/12 01:25:27;;;;;;;;;;;2.20;99.90;;;;;;5105493;28;20339;-66
2022/12/12 01:27:53;;;;;;;;;;;2.20;99.90;;;;;;5086274;28;19915;-67
2022/12/12 01:30:20;;;;;;;;;;;2.10;99.90;;;;;;5103344;28;19912;-67
2022/12/12 01:32:45;;;;;;;;;;;2.20;99.90;;;;;;5085551;28;19912;-67
2022/12/12 01:35:11;;;;;;;;;;;2.10;99.90;;;;;;5106627;28;19984;-67
2022/12/12 01:37:38;;;;;;;;;;;2.00;99.90;;;;;;5102734;28;20311;-67
2022/12/12 01:40:04;;;;;;;;;;;2.00;99.90;;;;;;5106423;28;19957;-66
2022/12/12 01:42:30;;;;;;;;;;;2.00;99.90;;;;;;5106050;28;20393;-67
2022/12/12 01:44:56;;;;;;;;;;;1.90;99.90;;;;;;5106330;28;19916;-67
2022/12/12 01:47:22;;;;;;;;;;;1.80;99.90;;;;;;5105149;28;19924;-66
2022/12/12 01:50:08;;;;;;;;;;;1.80;99.90;;;;;;5103321;28;19968;-66
2022/12/12 01:52:40;;;;;;;;;;;1.60;99.90;;;;;;5101923;28;19937;-66
2022/12/12 01:55:06;;;;;;;;;;;1.60;99.90;;;;;;5104059;28;19920;-66
2022/12/12 01:57:35;;;;;;;;;;;1.50;99.90;;;;;;5104032;28;20313;-66
2022/12/12 02:00:01;;;;;;;;;;;1.50;99.90;;;;;;5104109;28;19974;-65
2022/12/12 02:02:27;;;;;;;;;;;1.40;99.90;;;;;;5099324;28;19915;-65
2022/12/12 02:04:52;;;;;;;;;;;1.30;99.90;;;;;;5104720;28;19937;-65
2022/12/12 02:07:18;;;;;;;;;;;1.30;99.90;;;;;;5102784;28;19912;-65
2022/12/12 02:09:44;;;;;;;;;;;1.30;99.90;;;;;;5106098;28;19916;-65
2022/12/12 02:12:11;;;;;;;;;;;1.30;99.90;;;;;;5102607;28;20269;-64
2022/12/12 02:14:38;;;;;;;;;;;1.20;99.90;;;;;;5106310;28;20328;-64
2022/12/12 02:17:18;;;;;;;;;;;1.20;99.90;;;;;;5103458;28;19920;-65
2022/12/12 02:19:55;;;;;;;;;;;1.10;99.90;;;;;;5105504;28;19912;-64
2022/12/12 02:22:39;;;;;;;;;;;1.10;99.90;;;;;;5099451;28;19924;-65
2022/12/12 02:25:17;;;;;;;;;;;1.10;99.90;;;;;;5103538;28;19960;-65
2022/12/12 02:27:59;;;;;;;;;;;1.10;99.90;;;;;;5101877;28;20363;-65
2022/12/12 02:30:36;;;;;;;;;;;1.10;99.90;;;;;;5101767;28;19916;-65
2022/12/12 02:33:12;;;;;;;;;;;1.00;99.90;;;;;;5100705;28;20611;-65
2022/12/12 02:35:38;;;;;;;;;;;1.00;99.90;;;;;;5101445;28;20274;-65
2022/12/12 02:38:20;;;;;;;;;;;1.00;99.90;;;;;;5104378;28;19915;-65
2022/12/12 02:40:55;;;;;;;;;;;1.00;99.90;;;;;;5102897;28;19912;-66
2022/12/12 02:43:20;;;;;;;;;;;1.00;99.90;;;;;;5103022;28;19911;-66
2022/12/12 02:45:53;;;;;;;;;;;1.00;99.90;;;;;;5103116;28;19999;-66
2022/12/12 02:48:22;;;;;;;;;;;1.00;99.90;;;;;;5100253;28;20324;-67
2022/12/12 02:50:49;;;;;;;;;;;1.00;99.90;;;;;;5104075;28;19916;-67
2022/12/12 02:53:18;;;;;;;;;;;1.00;99.90;;;;;;5086347;28;20363;-67
2022/12/12 02:55:44;;;;;;;;;;;1.00;99.90;;;;;;5105749;28;19916;-67
2022/12/12 02:58:09;;;;;;;;;;;1.10;99.90;;;;;;5105480;28;19923;-68
2022/12/12 03:00:40;;;;;;;;;;;1.10;99.90;;;;;;5104697;28;19912;-68
2022/12/12 03:08:54;;;;;;;;;;;1.20;99.90;;;;;;5101097;28;19977;-68
2022/12/12 03:11:24;;;;;;;;;;;1.20;99.90;;;;;;5104466;28;19915;-68
2022/12/12 03:14:06;;;;;;;;;;;1.20;99.90;;;;;;5104564;28;19912;-68
2022/12/12 03:16:37;;;;;;;;;;;1.20;99.90;;;;;;5107974;28;19931;-68
2022/12/12 03:19:24;;;;;;;;;;;1.30;99.90;;;;;;5108100;28;20366;-68
2022/12/12 03:22:07;;;;;;;;;;;1.30;99.90;;;;;;5107246;28;20287;-68
2022/12/12 03:24:38;;;;;;;;;;;1.30;99.90;;;;;;5107319;28;20329;-68
2022/12/12 03:27:21;;;;;;;;;;;1.30;99.90;;;;;;5090217;28;20605;-68
2022/12/12 03:29:50;;;;;;;;;;;1.40;99.90;;;;;;5107279;28;19926;-68
2022/12/12 03:32:21;;;;;;;;;;;1.40;99.90;;;;;;5107254;28;19919;-68
2022/12/12 03:34:49;;;;;;;;;;;1.40;99.90;;;;;;5090960;28;20366;-68
2022/12/12 03:37:18;;;;;;;;;;;1.40;99.90;;;;;;5087494;28;19912;-68
2022/12/12 03:39:48;;;;;;;;;;;1.40;99.90;;;;;;5104803;28;19922;-68
2022/12/12 03:42:16;;;;;;;;;;;1.40;99.90;;;;;;5104997;28;20355;-68
2022/12/12 03:44:44;;;;;;;;;;;1.50;99.90;;;;;;5101772;28;19946;-68
2022/12/12 03:47:12;;;;;;;;;;;1.40;99.90;;;;;;5107117;28;19916;-68
2022/12/12 03:49:53;;;;;;;;;;;1.40;99.90;;;;;;5105136;28;20348;-68
2022/12/12 03:52:21;;;;;;;;;;;1.40;99.90;;;;;;5101565;28;19912;-68
2022/12/12 03:54:50;;;;;;;;;;;1.50;99.90;;;;;;5105504;28;20007;-69
2022/12/12 03:57:25;;;;;;;;;;;1.40;99.90;;;;;;5106879;28;19954;-69
2022/12/12 03:59:53;;;;;;;;;;;1.40;99.90;;;;;;5107270;28;20314;-69
2022/12/12 04:02:25;;;;;;;;;;;1.40;99.90;;;;;;5106926;28;19965;-69
2022/12/12 04:04:58;;;;;;;;;;;1.50;99.90;;;;;;5104972;28;20312;-69
2022/12/12 04:07:27;;;;;;;;;;;1.40;99.90;;;;;;5108183;28;19919;-69
2022/12/12 04:12:57;;;;;;;;;;;1.40;99.90;;;;;;5104530;28;20440;-68
2022/12/12 04:15:26;;;;;;;;;;;1.40;99.90;;;;;;5100417;28;19963;-68
2022/12/12 04:17:54;;;;;;;;;;;1.40;99.90;;;;;;5107729;28;20411;-68
2022/12/12 04:23:34;;;;;;;;;;;1.40;99.90;;;;;;5101821;28;19988;-68
2022/12/12 04:28:57;;;;;;;;;;;1.30;99.90;;;;;;5104956;28;19969;-68
2022/12/12 04:31:24;;;;;;;;;;;1.30;99.90;;;;;;5100108;28;19928;-68
2022/12/12 04:33:53;;;;;;;;;;;1.20;99.90;;;;;;5106684;28;19916;-68
2022/12/12 04:36:20;;;;;;;;;;;1.30;99.90;;;;;;5105733;28;19950;-68
2022/12/12 04:38:47;;;;;;;;;;;1.20;99.90;;;;;;5107301;28;19918;-68
2022/12/12 04:41:13;;;;;;;;;;;1.20;99.90;;;;;;5104271;28;19919;-68
2022/12/12 04:43:39;;;;;;;;;;;1.10;99.90;;;;;;5103168;28;19966;-67
2022/12/12 04:46:07;;;;;;;;;;;1.10;99.90;;;;;;5103414;28;20272;-67
2022/12/12 04:48:38;;;;;;;;;;;1.10;99.90;;;;;;5094596;28;20359;-67
2022/12/12 04:51:04;;;;;;;;;;;1.10;99.90;;;;;;5106607;28;19964;-67
2022/12/12 04:53:36;;;;;;;;;;;1.10;99.90;;;;;;5107611;28;19920;-67
2022/12/12 04:56:06;;;;;;;;;;;1.00;99.90;;;;;;5102078;28;19915;-67
2022/12/12 04:58:31;;;;;;;;;;;1.10;99.90;;;;;;5104512;28;19912;-68
2022/12/12 05:00:59;;;;;;;;;;;1.10;99.90;;;;;;5104675;28;20067;-67
2022/12/12 05:03:30;;;;;;;;;;;1.00;99.90;;;;;;5106051;28;19912;-67
2022/12/12 05:05:55;;;;;;;;;;;1.00;99.90;;;;;;5107898;28;20343;-68
2022/12/12 05:08:26;;;;;;;;;;;0.90;99.90;;;;;;5103839;28;20061;-67
2022/12/12 05:10:56;;;;;;;;;;;0.90;99.90;;;;;;5104194;28;19927;-67
2022/12/12 05:13:26;;;;;;;;;;;0.80;99.90;;;;;;5105910;28;19920;-67
2022/12/12 05:15:53;;;;;;;;;;;0.80;99.90;;;;;;5104764;28;19920;-67
2022/12/12 05:18:18;;;;;;;;;;;0.80;99.90;;;;;;5106122;28;20321;-67
2022/12/12 05:20:44;;;;;;;;;;;0.70;99.90;;;;;;5104577;28;19916;-67
2022/12/12 05:23:09;;;;;;;;;;;0.70;99.90;;;;;;5105738;28;19961;-68
2022/12/12 05:25:35;;;;;;;;;;;0.70;99.90;;;;;;5107410;28;20343;-67
2022/12/12 05:28:01;;;;;;;;;;;0.70;99.90;;;;;;5087785;28;19923;-67
2022/12/12 05:30:28;;;;;;;;;;;0.60;99.90;;;;;;5081505;28;25739;-67
2022/12/12 05:32:54;;;;;;;;;;;0.60;99.90;;;;;;5105051;28;19943;-67
2022/12/12 05:35:19;;;;;;;;;;;0.50;99.90;;;;;;5086705;28;19923;-67
2022/12/12 05:37:45;;;;;;;;;;;0.50;99.90;;;;;;5087606;28;19918;-67
2022/12/12 05:40:11;;;;;;;;;;;0.50;99.90;;;;;;5104851;28;19923;-67
2022/12/12 05:42:37;;;;;;;;;;;0.50;99.90;;;;;;5106832;28;20400;-66
2022/12/12 05:45:03;;;;;;;;;;;0.40;99.90;;;;;;5105353;28;20002;-67
2022/12/12 05:47:28;;;;;;;;;;;0.40;99.90;;;;;;5105741;28;20335;-67
2022/12/12 05:49:54;;;;;;;;;;;0.30;99.90;;;;;;5105895;28;19923;-67
2022/12/12 05:52:19;;;;;;;;;;;0.30;99.90;;;;;;5103105;28;20484;-67
2022/12/12 05:54:45;;;;;;;;;;;0.30;99.90;;;;;;5106430;28;19919;-66
2022/12/12 05:57:10;;;;;;;;;;;0.30;99.90;;;;;;5104800;28;19922;-67
2022/12/12 05:59:36;;;;;;;;;;;0.20;99.90;;;;;;5104967;28;19911;-67
2022/12/12 06:02:01;;;;;;;;;;;0.20;99.90;;;;;;5101581;28;20034;-67
2022/12/12 06:04:27;;;;;;;;;;;0.20;99.90;;;;;;5106971;28;19915;-67
2022/12/12 06:06:52;;;;;;;;;;;0.10;99.90;;;;;;5106455;28;20359;-67
2022/12/12 06:09:18;;;;;;;;;;;0.10;99.90;;;;;;5100047;28;19915;-67
2022/12/12 06:11:43;;;;;;;;;;;0.10;99.90;;;;;;5104776;28;19961;-66
2022/12/12 06:14:09;;;;;;;;;;;0.10;99.90;;;;;;5104974;28;20008;-67
2022/12/12 06:16:35;;;;;;;;;;;0.00;99.90;;;;;;5106177;28;19916;-66
2022/12/12 06:19:00;;;;;;;;;;;0.00;99.90;;;;;;5102492;28;19965;-67
2022/12/12 06:21:26;;;;;;;;;;;-0.10;99.90;;;;;;5104779;28;19913;-66
2022/12/12 06:23:52;;;;;;;;;;;-0.10;99.90;;;;;;5103214;28;19951;-66
2022/12/12 06:26:18;;;;;;;;;;;-0.20;99.90;;;;;;5101260;28;19949;-67
2022/12/12 06:28:43;;;;;;;;;;;-0.20;99.90;;;;;;5101848;28;19915;-66
2022/12/12 06:31:09;;;;;;;;;;;-0.10;99.90;;;;;;5101608;28;19916;-67
2022/12/12 06:33:35;;;;;;;;;;;-0.10;99.90;;;;;;5105964;28;19919;-66
2022/12/12 06:36:05;;;;;;;;;;;-0.10;99.90;;;;;;5105486;28;19938;-66
2022/12/12 06:38:30;;;;;;;;;;;-0.10;99.90;;;;;;5102267;28;19926;-66
2022/12/12 06:40:56;;;;;;;;;;;-0.20;99.90;;;;;;5101287;28;20283;-67
2022/12/12 06:43:22;;;;;;;;;;;-0.30;99.90;;;;;;5098198;28;20662;-66
2022/12/12 06:45:47;;;;;;;;;;;-0.20;99.90;;;;;;5101415;28;20326;-67
2022/12/12 06:48:13;;;;;;;;;;;-0.20;99.90;;;;;;5107547;28;19972;-67
2022/12/12 06:50:39;;;;;;;;;;;-0.20;99.90;;;;;;5109997;28;19916;-66
2022/12/12 06:53:05;;;;;;;;;;;-0.20;99.90;;;;;;5105358;28;19963;-67
2022/12/12 06:55:30;;;;;;;;;;;-0.20;99.90;;;;;;5104002;28;20328;-66
2022/12/12 06:57:56;;;;;;;;;;;-0.10;99.90;;;;;;5104274;28;19925;-66
2022/12/12 07:00:21;;;;;;;;;;;-0.10;99.90;;;;;;5104346;28;19919;-66
2022/12/12 07:02:47;;;;;;;;;;;-0.10;99.90;;;;;;5109379;28;19922;-66
2022/12/12 07:05:12;;;;;;;;;;;0.00;99.90;;;;;;5100738;28;19912;-66
2022/12/12 07:07:37;;;;;;;;;;;-0.10;99.90;;;;;;5103954;28;19912;-66
2022/12/12 07:10:03;;;;;;;;;;;-0.10;99.90;;;;;;5109117;28;19968;-66
2022/12/12 07:12:29;;;;;;;;;;;-0.10;99.90;;;;;;5106107;28;20323;-66
2022/12/12 07:14:54;;;;;;;;;;;0.00;99.90;;;;;;5108467;28;20007;-67
2022/12/12 07:17:20;;;;;;;;;;;0.10;99.90;;;;;;5107650;28;20378;-66
2022/12/12 07:19:45;;;;;;;;;;;0.00;99.90;;;;;;5090813;28;19999;-67
2022/12/12 07:22:11;;;;;;;;;;;0.00;99.90;;;;;;5104053;28;19915;-67
2022/12/12 07:24:36;;;;;;;;;;;0.10;99.90;;;;;;5106532;28;20464;-67
2022/12/12 07:27:02;;;;;;;;;;;0.00;99.90;;;;;;5103314;28;19947;-66
2022/12/12 07:29:27;;;;;;;;;;;0.00;99.90;;;;;;5107540;28;19968;-67
2022/12/12 07:31:53;;;;;;;;;;;0.00;99.90;;;;;;5106574;28;20271;-66
2022/12/12 07:34:18;;;;;;;;;;;0.00;99.90;;;;;;5103630;28;20033;-67
2022/12/12 07:36:44;;;;;;;;;;;0.00;99.90;;;;;;5106444;28;19912;-67
2022/12/12 07:39:09;;;;;;;;;;;0.00;99.90;;;;;;5109129;28;19950;-67
2022/12/12 07:41:35;;;;;;;;;;;-0.10;99.90;;;;;;5104930;28;20550;-67
2022/12/12 07:44:00;;;;;;;;;;;-0.20;99.90;;;;;;5108316;28;19916;-67
2022/12/12 07:46:26;;;;;;;;;;;-0.20;99.90;;;;;;5105162;28;19959;-67
2022/12/12 07:48:52;;;;;;;;;;;-0.20;99.90;;;;;;5102069;28;19920;-67
2022/12/12 07:51:18;;;;;;;;;;;-0.10;99.90;;;;;;5105649;28;19912;-67
2022/12/12 07:53:43;;;;;;;;;;;-0.20;99.90;;;;;;5107677;28;19912;-67
2022/12/12 07:56:10;;;;;;;;;;;-0.20;99.90;;;;;;5107432;28;19916;-67
2022/12/12 07:58:36;;;;;;;;;;;-0.10;99.90;;;;;;5106205;28;20367;-67
2022/12/12 08:01:07;;;;;;;;;;;-0.10;99.90;;;;;;5086884;28;19927;-67
2022/12/12 08:03:32;;;;;;;;;;;-0.10;99.90;;;;;;5085856;28;19943;-67
2022/12/12 08:05:58;;;;;;;;;;;-0.20;99.90;;;;;;5107739;28;19923;-66
2022/12/12 08:08:23;;;;;;;;;;;-0.10;99.90;;;;;;5104159;28;19924;-67
2022/12/12 08:10:49;;;;;;;;;;;-0.10;99.90;;;;;;5087837;28;20228;-68
2022/12/12 08:13:14;;;;;;;;;;;-0.10;99.90;;;;;;5103096;28;20003;-68
2022/12/12 08:15:41;;;;;;;;;;;-0.20;99.90;;;;;;5105666;28;19916;-68
2022/12/12 08:18:06;;;;;;;;;;;-0.10;99.90;;;;;;5087057;28;20368;-68
2022/12/12 08:20:32;;;;;;;;;;;-0.10;99.90;;;;;;5108478;28;20034;-68
2022/12/12 08:22:58;;;;;;;;;;;-0.10;99.90;;;;;;5106129;28;19961;-68
2022/12/12 08:25:23;;;;;;;;;;;-0.10;99.90;;;;;;5106163;28;20401;-68
2022/12/12 08:27:49;;;;;;;;;;;-0.10;99.90;;;;;;5107823;28;19920;-68
2022/12/12 08:30:15;;;;;;;;;;;-0.10;99.90;;;;;;5085838;28;20346;-68
2022/12/12 08:32:40;;;;;;;;;;;0.00;99.90;;;;;;5101971;28;19919;-69
2022/12/12 08:35:06;;;;;;;;;;;0.00;99.90;;;;;;5106513;28;19912;-68
2022/12/12 08:37:32;;;;;;;;;;;0.00;99.90;;;;;;5102921;28;20279;-68
2022/12/12 08:39:57;;;;;;;;;;;0.00;99.90;;;;;;5105392;28;19915;-68
2022/12/12 08:42:23;;;;;;;;;;;0.10;99.90;;;;;;5107271;28;19919;-68
2022/12/12 08:44:49;;;;;;;;;;;0.00;99.90;;;;;;5104114;28;19916;-68
2022/12/12 08:47:14;;;;;;;;;;;-0.10;99.90;;;;;;5104202;28;20063;-68
2022/12/12 08:49:40;;;;;;;;;;;0.00;99.90;;;;;;5107688;27;20374;-68
2022/12/12 08:52:08;;;;;;;;;;;-0.10;99.90;;;;;;5106824;28;19916;-69
2022/12/12 08:54:34;;;;;;;;;;;-0.10;99.90;;;;;;5088865;28;19934;-68
2022/12/12 08:57:00;;;;;;;;;;;0.00;99.90;;;;;;5106964;28;20370;-69
2022/12/12 08:59:25;;;;;;;;;;;0.00;99.90;;;;;;5102613;28;19963;-69
2022/12/12 09:01:51;;;;;;;;;;;0.10;99.90;;;;;;5088238;28;19919;-68
2022/12/12 09:04:16;;;;;;;;;;;0.20;99.90;;;;;;5085624;28;20421;-68
2022/12/12 09:06:44;;;;;;;;;;;0.20;99.90;;;;;;5105662;28;20294;-69
2022/12/12 09:09:10;;;;;;;;;;;0.20;99.90;;;;;;5104321;28;19935;-66
2022/12/12 09:11:35;;;;;;;;;;;0.20;99.90;;;;;;5105743;28;19920;-67
2022/12/12 09:14:01;;;;;;;;;;;0.20;99.90;;;;;;5104774;28;19911;-67
2022/12/12 09:16:28;;;;;;;;;;;0.20;99.90;;;;;;5104737;28;19920;-67
2022/12/12 09:18:54;;;;;;;;;;;0.30;99.90;;;;;;5104594;28;19995;-66
2022/12/12 09:21:20;;;;;;;;;;;0.30;99.90;;;;;;5080575;28;19969;-67
2022/12/12 09:23:46;;;;;;;;;;;0.40;99.90;;;;;;5106471;28;19912;-68
2022/12/12 09:26:12;;;;;;;;;;;0.40;99.90;;;;;;5104290;28;19934;-66
2022/12/12 09:28:37;;;;;;;;;;;0.40;99.90;;;;;;5104841;28;19919;-66
2022/12/12 09:31:07;;;;;;;;;;;0.50;99.90;;;;;;5099858;28;19916;-67
2022/12/12 09:33:32;;;;;;;;;;;0.60;99.90;;;;;;5105040;28;20325;-67
2022/12/12 09:35:59;;;;;;;;;;;0.80;99.90;;;;;;5104309;28;19916;-66
2022/12/12 09:38:24;;;;;;;;;;;0.60;99.90;;;;;;5100203;28;19966;-67
2022/12/12 09:40:55;;;;;;;;;;;0.80;99.90;;;;;;5105855;28;19919;-67
2022/12/12 09:43:28;;;;;;;;;;;0.90;99.90;;;;;;5101804;28;19920;-67
2022/12/12 09:45:54;;;;;;;;;;;0.90;99.90;;;;;;5103495;28;20371;-66
2022/12/12 09:48:26;;;;;;;;;;;1.10;99.90;;;;;;5087220;28;19927;-66
2022/12/12 09:50:52;;;;;;;;;;;1.10;99.90;;;;;;5100806;28;19998;-67
2022/12/12 09:53:18;;;;;;;;;;;1.20;99.90;;;;;;5098608;28;19920;-67
2022/12/12 09:55:49;;;;;;;;;;;1.20;99.90;;;;;;5102834;28;19960;-67
2022/12/12 09:58:35;;;;;;;;;;;1.20;99.90;;;;;;5104639;27;19919;-67
2022/12/12 10:01:09;;;;;;;;;;;1.30;99.90;;;;;;5102580;28;20394;-68
2022/12/12 10:03:40;;;;;;;;;;;1.30;99.90;;;;;;5097843;28;19912;-67
2022/12/12 10:06:07;;;;;;;;;;;1.30;99.90;;;;;;5102286;28;19954;-68
2022/12/12 10:08:36;;;;;;;;;;;1.30;99.90;;;;;;5101199;28;19916;-69
2022/12/12 10:11:06;;;;;;;;;;;1.30;99.90;;;;;;5086717;28;19957;-68
2022/12/12 10:13:34;;;;;;;;;;;1.30;99.90;;;;;;5102630;28;20434;-68
2022/12/12 10:16:07;;;;;;;;;;;1.30;99.90;;;;;;5098156;28;19953;-68
2022/12/12 10:18:34;;;;;;;;;;;1.30;99.90;;;;;;5105356;28;19915;-67
2022/12/12 10:21:01;;;;;;;;;;;1.20;99.90;;;;;;5103608;28;20466;-69
2022/12/12 10:23:34;;;;;;;;;;;1.30;99.90;;;;;;5100170;28;20379;-64
2022/12/12 10:26:01;;;;;;;;;;;1.30;99.90;;;;;;5104415;28;20041;-69
2022/12/12 10:28:29;;;;;;;;;;;1.40;99.90;;;;;;5104635;28;19970;-69
2022/12/12 10:30:54;;;;;;;;;;;1.30;99.90;;;;;;5095323;28;20386;-69
2022/12/12 10:33:20;;;;;;;;;;;1.40;99.90;;;;;;5099326;28;19973;-69
2022/12/12 10:35:58;;;;;;;;;;;1.40;99.90;;;;;;5101875;28;19919;-69
2022/12/12 10:38:45;;;;;;;;;;;1.30;99.90;;;;;;5102212;28;19969;-69
2022/12/12 10:41:23;;;;;;;;;;;1.50;99.90;;;;;;5102027;28;20375;-69
2022/12/12 10:43:57;;;;;;;;;;;1.60;99.90;;;;;;5097232;28;19960;-69
2022/12/12 10:46:22;;;;;;;;;;;1.50;99.90;;;;;;5100202;28;21780;-70
2022/12/12 10:48:48;;;;;;;;;;;1.70;99.90;;;;;;5100647;28;19923;-71
2022/12/12 10:51:16;;;;;;;;;;;1.70;99.90;;;;;;5081633;28;19912;-70
2022/12/12 10:53:42;;;;;;;;;;;1.80;99.90;;;;;;5103352;28;20108;-70
2022/12/12 10:56:10;;;;;;;;;;;1.90;99.90;;;;;;5104986;28;20370;-70
2022/12/12 10:58:40;;;;;;;;;;;1.80;99.90;;;;;;5102661;28;20240;-69
2022/12/12 11:01:11;;;;;;;;;;;1.80;99.90;;;;;;5094553;28;20378;-70
2022/12/12 11:03:47;;;;;;;;;;;1.80;99.90;;;;;;5103937;28;20539;-69
2022/12/12 11:06:25;;;;;;;;;;;1.70;99.90;;;;;;5086424;28;19919;-69
2022/12/12 11:08:52;;;;;;;;;;;1.70;99.90;;;;;;5100479;28;19924;-70
2022/12/12 11:11:22;;;;;;;;;;;1.80;99.90;;;;;;5083821;28;19919;-70
2022/12/12 11:13:52;;;;;;;;;;;1.80;99.90;;;;;;5101942;28;19916;-70
2022/12/12 11:16:20;;;;;;;;;;;1.80;99.90;;;;;;5100016;28;19916;-70
2022/12/12 11:18:59;;;;;;;;;;;1.90;99.90;;;;;;5104592;28;20393;-70
2022/12/12 11:21:25;;;;;;;;;;;2.00;99.90;;;;;;5101190;28;20623;-70
2022/12/12 11:23:55;;;;;;;;;;;2.00;99.90;;;;;;5101122;28;20038;-70
2022/12/12 11:26:21;;;;;;;;;;;1.90;99.90;;;;;;5100730;28;19927;-71
2022/12/12 11:29:13;;;;;;;;;;;2.00;99.90;;;;;;5101725;28;20011;-70
2022/12/12 11:31:38;;;;;;;;;;;2.00;99.90;;;;;;5092592;28;20010;-70
2022/12/12 11:34:05;;;;;;;;;;;2.00;99.90;;;;;;5096780;28;19912;-70
2022/12/12 11:36:35;;;;;;;;;;;1.90;99.90;;;;;;5108522;28;19916;-70
2022/12/12 11:39:02;;;;;;;;;;;2.00;99.90;;;;;;5106774;28;19944;-70
2022/12/12 11:41:27;;;;;;;;;;;2.00;99.90;;;;;;5106518;28;20384;-69
2022/12/12 11:43:56;;;;;;;;;;;2.00;99.90;;;;;;5102379;28;20006;-69
2022/12/12 11:46:23;;;;;;;;;;;2.00;99.90;;;;;;5103815;28;20324;-69
2022/12/12 11:48:52;;;;;;;;;;;2.00;99.90;;;;;;5103901;28;20287;-69
2022/12/12 11:51:37;;;;;;;;;;;2.00;99.90;;;;;;5106186;28;19995;-69
2022/12/12 11:54:10;;;;;;;;;;;2.30;99.90;;;;;;5086261;28;19916;-69
2022/12/12 11:56:39;;;;;;;;;;;2.20;99.90;;;;;;5107410;28;19920;-69
2022/12/12 11:59:23;;;;;;;;;;;2.10;99.90;;;;;;5086759;28;19927;-69
2022/12/12 12:01:54;;;;;;;;;;;2.10;99.90;;;;;;5100769;28;20294;-70
2022/12/12 12:04:22;;;;;;;;;;;2.10;99.90;;;;;;5104275;28;19922;-68
2022/12/12 12:06:50;;;;;;;;;;;2.00;99.90;;;;;;5103577;28;19923;-69
2022/12/12 12:09:41;;;;;;;;;;;2.00;99.90;;;;;;5104985;28;19924;-69
2022/12/12 12:12:11;;;;;;;;;;;2.20;99.90;;;;;;5104737;28;19923;-69
2022/12/12 12:14:45;;;;;;;;;;;2.30;99.90;;;;;;5107426;28;19933;-69
2022/12/12 12:17:31;;;;;;;;;;;2.20;99.90;;;;;;5100816;28;19961;-69
2022/12/12 12:20:04;;;;;;;;;;;2.20;99.90;;;;;;5088228;28;19919;-68
2022/12/12 12:22:35;;;;;;;;;;;2.10;99.90;;;;;;5096362;28;20446;-68
2022/12/12 12:25:01;;;;;;;;;;;2.10;99.90;;;;;;5104935;28;19927;-68
2022/12/12 12:27:26;;;;;;;;;;;2.20;99.90;;;;;;5102714;28;19924;-68
2022/12/12 12:29:58;;;;;;;;;;;2.20;99.90;;;;;;5104100;28;19927;-68
2022/12/12 12:32:27;;;;;;;;;;;2.30;99.90;;;;;;5100584;28;20371;-68
2022/12/12 12:35:04;;;;;;;;;;;2.30;99.90;;;;;;5088701;28;20166;-68
2022/12/12 12:37:48;;;;;;;;;;;2.20;99.90;;;;;;5097152;28;19916;-68
2022/12/12 12:40:25;;;;;;;;;;;2.30;99.90;;;;;;5100713;28;20003;-69
2022/12/12 12:42:50;;;;;;;;;;;2.50;99.90;;;;;;5103203;28;19919;-68
2022/12/12 12:45:25;;;;;;;;;;;2.30;99.90;;;;;;5100666;27;19916;-67
2022/12/12 12:47:54;;;;;;;;;;;2.30;99.90;;;;;;5105733;28;19923;-68
2022/12/12 12:50:22;;;;;;;;;;;2.30;99.90;;;;;;5105138;28;19916;-68
2022/12/12 12:52:58;;;;;;;;;;;2.30;99.90;;;;;;5104995;28;19928;-67
2022/12/12 12:55:27;;;;;;;;;;;2.30;99.90;;;;;;5105802;28;19923;-67
2022/12/12 12:57:53;;;;;;;;;;;2.40;99.90;;;;;;5104786;28;19915;-68
2022/12/12 13:00:19;;;;;;;;;;;2.30;99.90;;;;;;5099969;28;19919;-67
2022/12/12 13:02:54;;;;;;;;;;;2.30;99.90;;;;;;5102794;28;19963;-68
2022/12/12 13:05:32;;;;;;;;;;;2.30;99.90;;;;;;5105990;28;19964;-67
2022/12/12 13:08:13;;;;;;;;;;;2.20;99.90;;;;;;5103111;28;20323;-68
2022/12/12 13:10:40;;;;;;;;;;;2.30;99.90;;;;;;5095969;28;20379;-68
2022/12/12 13:13:13;;;;;;;;;;;2.30;99.90;;;;;;5082752;28;20050;-68
2022/12/12 13:15:45;;;;;;;;;;;2.40;99.90;;;;;;5102393;28;20389;-67
2022/12/12 13:18:12;;;;;;;;;;;2.40;99.90;;;;;;5102383;28;19935;-68
2022/12/12 13:20:47;;;;;;;;;;;2.50;99.90;;;;;;5101766;28;20390;-67
2022/12/12 13:23:22;;;;;;;;;;;2.50;99.90;;;;;;5090050;28;19920;-68
2022/12/12 13:25:52;;;;;;;;;;;2.50;99.90;;;;;;5103908;28;19920;-68
2022/12/12 13:28:21;;;;;;;;;;;2.20;99.90;;;;;;5104789;28;19931;-67
2022/12/12 13:30:54;;;;;;;;;;;2.30;99.90;;;;;;5101351;28;19951;-68
2022/12/12 13:33:31;;;;;;;;;;;2.40;99.90;;;;;;5102186;28;20386;-67
2022/12/12 13:36:04;;;;;;;;;;;2.40;99.90;;;;;;5105336;28;20525;-67
2022/12/12 13:38:31;;;;;;;;;;;2.50;99.90;;;;;;5103787;28;20601;-67
2022/12/12 13:40:58;;;;;;;;;;;2.50;99.90;;;;;;5103163;28;19923;-68
2022/12/12 13:43:40;;;;;;;;;;;2.30;99.90;;;;;;5101611;28;20272;-68
2022/12/12 13:46:18;;;;;;;;;;;2.30;99.90;;;;;;5102396;28;19938;-68
2022/12/12 13:48:46;;;;;;;;;;;2.20;99.90;;;;;;5100878;28;20030;-67
2022/12/12 13:51:24;;;;;;;;;;;2.20;99.90;;;;;;5085144;28;19916;-67
2022/12/12 13:54:10;;;;;;;;;;;2.20;99.90;;;;;;5104947;28;20694;-66
2022/12/12 13:56:40;;;;;;;;;;;2.30;99.90;;;;;;5102512;28;20432;-67
2022/12/12 13:59:20;;;;;;;;;;;2.20;99.90;;;;;;5099804;28;19955;-67
2022/12/12 14:01:46;;;;;;;;;;;2.30;99.90;;;;;;5102853;28;19915;-68
2022/12/12 14:04:30;;;;;;;;;;;2.40;99.90;;;;;;5095323;28;20274;-66
2022/12/12 14:07:00;;;;;;;;;;;2.40;99.90;;;;;;5095232;28;19919;-67
2022/12/12 14:09:28;;;;;;;;;;;2.30;99.90;;;;;;5082826;28;20011;-66
2022/12/12 14:12:01;;;;;;;;;;;2.30;99.90;;;;;;5102204;28;20371;-67
2022/12/12 14:14:27;;;;;;;;;;;2.30;99.90;;;;;;5102798;28;20422;-68
2022/12/12 14:16:54;;;;;;;;;;;2.20;99.90;;;;;;5101564;28;20077;-69
2022/12/12 14:19:24;;;;;;;;;;;2.10;99.90;;;;;;5100300;28;20390;-69
2022/12/12 14:21:49;;;;;;;;;;;2.10;99.90;;;;;;5084840;28;20396;-68
2022/12/12 14:24:33;;;;;;;;;;;2.10;99.90;;;;;;5097854;28;19920;-68
2022/12/12 14:26:59;;;;;;;;;;;2.00;99.90;;;;;;5096601;28;19926;-68
2022/12/12 14:29:28;;;;;;;;;;;2.10;99.90;;;;;;5098687;28;19916;-67
2022/12/12 14:32:06;;;;;;;;;;;2.10;99.90;;;;;;5100903;28;19923;-67
2022/12/12 14:34:44;;;;;;;;;;;2.10;99.90;;;;;;5110193;28;20373;-68
2022/12/12 14:37:31;;;;;;;;;;;2.10;99.90;;;;;;5104326;28;19916;-68
2022/12/12 14:40:12;;;;;;;;;;;2.00;99.90;;;;;;5100213;28;20323;-67
2022/12/12 14:42:47;;;;;;;;;;;2.00;99.90;;;;;;5094084;28;19920;-68
2022/12/12 14:45:45;;;;;;;;;;;2.00;99.90;;;;;;5103770;28;20347;-68
2022/12/12 14:48:24;;;;;;;;;;;1.90;99.90;;;;;;5043545;28;19916;-68
2022/12/12 14:50:51;;;;;;;;;;;2.00;99.90;;;;;;5098808;28;20267;-69
2022/12/12 14:53:19;;;;;;;;;;;1.90;99.90;;;;;;5102350;28;19919;-69